Time;durP1;ratioP1;P1;durP2;ratioP2;P2;SDS_P1;SDS_P2;PMS_P1;PMS_P2;Temp;Humidity;BMP_temperature;BMP_pressure;BME280_temperature;BME280_humidity;BME280_pressure;Samples;Min_cycle;Max_cycle;Signal;HPM_P1;HPM_P2
2023/08/27 00:01:04;;;;;;;18.90;6.80;;;;;;;;;;5024907;28;20037;-70
2023/08/27 00:03:32;;;;;;;16.33;5.90;;;;;;;;;;5021910;28;20472;-69
2023/08/27 00:05:57;;;;;;;15.15;5.97;;;;;;;;;;5024527;28;20044;-70
2023/08/27 00:08:22;;;;;;;10.43;4.80;;;;;;;;;;5020865;28;22184;-70
2023/08/27 00:10:48;;;;;;;11.55;5.53;;;;;;;;;;5021839;28;20053;-69
2023/08/27 00:13:13;;;;;;;16.23;6.70;;;;;;;;;;5021379;28;20482;-70
2023/08/27 00:15:45;;;;;;;14.50;7.03;;;;;;;;;;5023827;28;20037;-68
2023/08/27 00:18:11;;;;;;;13.40;6.20;;;;;;;;;;5020974;28;20848;-70
2023/08/27 00:20:36;;;;;;;11.07;6.50;;;;;;;;;;5021668;28;20037;-70
2023/08/27 00:23:04;;;;;;;11.57;6.20;;;;;;;;;;5052937;28;20036;-70
2023/08/27 00:25:31;;;;;;;13.15;6.28;;;;;;;;;;5020580;28;20033;-68
2023/08/27 00:27:56;;;;;;;8.95;5.43;;;;;;;;;;5021282;28;20044;-68
2023/08/27 00:30:22;;;;;;;10.88;5.80;;;;;;;;;;5025065;28;20055;-68
2023/08/27 00:32:47;;;;;;;14.75;6.05;;;;;;;;;;5025926;28;20925;-69
2023/08/27 00:35:12;;;;;;;12.57;5.80;;;;;;;;;;5019976;28;20041;-68
2023/08/27 00:37:40;;;;;;;13.60;5.82;;;;;;;;;;5018188;28;20033;-68
2023/08/27 00:40:06;;;;;;;10.35;6.15;;;;;;;;;;5020116;28;20485;-69
2023/08/27 00:42:32;;;;;;;11.15;6.25;;;;;;;;;;5000429;28;20580;-68
2023/08/27 00:45:03;;;;;;;11.57;6.00;;;;;;;;;;4999741;28;20044;-69
2023/08/27 00:47:29;;;;;;;14.02;6.30;;;;;;;;;;4989303;28;20030;-69
2023/08/27 00:49:54;;;;;;;13.93;6.10;;;;;;;;;;4999570;28;20076;-69
2023/08/27 00:52:20;;;;;;;13.48;7.40;;;;;;;;;;5015317;28;20056;-69
2023/08/27 00:54:45;;;;;;;16.33;7.18;;;;;;;;;;5000623;28;20045;-69
2023/08/27 00:57:11;;;;;;;13.02;6.30;;;;;;;;;;5000214;28;20030;-69
2023/08/27 00:59:37;;;;;;;13.20;6.90;;;;;;;;;;4997917;28;20072;-68
2023/08/27 01:02:02;;;;;;;12.45;6.40;;;;;;;;;;5001077;28;20037;-70
2023/08/27 01:04:28;;;;;;;12.63;7.00;;;;;;;;;;5004820;28;20033;-70
2023/08/27 01:06:53;;;;;;;15.60;7.47;;;;;;;;;;5004565;28;20042;-68
2023/08/27 01:09:32;;;;;;;13.60;7.30;;;;;;;;;;4999209;28;20041;-67
2023/08/27 01:12:00;;;;;;;13.60;6.40;;;;;;;;;;5000325;28;20062;-66
2023/08/27 01:14:27;;;;;;;13.45;7.07;;;;;;;;;;5001538;28;20029;-68
2023/08/27 01:16:52;;;;;;;17.15;7.18;;;;;;;;;;4988897;28;20048;-69
2023/08/27 01:19:18;;;;;;;16.33;7.18;;;;;;;;;;5001233;28;20053;-68
2023/08/27 01:21:44;;;;;;;18.45;7.40;;;;;;;;;;5000299;28;20036;-68
2023/08/27 01:24:10;;;;;;;14.45;6.45;;;;;;;;;;5000945;28;20026;-68
2023/08/27 01:26:46;;;;;;;18.48;8.40;;;;;;;;;;5000963;28;20079;-69
2023/08/27 01:29:11;;;;;;;19.13;8.00;;;;;;;;;;5030736;28;20087;-68
2023/08/27 01:31:41;;;;;;;20.55;9.68;;;;;;;;;;4999341;28;20037;-66
2023/08/27 01:34:10;;;;;;;35.05;13.65;;;;;;;;;;5030300;28;20037;-68
2023/08/27 01:36:38;;;;;;;44.85;16.92;;;;;;;;;;5030011;28;20037;-68
2023/08/27 01:39:04;;;;;;;33.13;14.63;;;;;;;;;;5005543;28;20155;-69
2023/08/27 01:41:29;;;;;;;22.60;10.60;;;;;;;;;;5000771;28;20037;-70
2023/08/27 01:43:54;;;;;;;12.98;7.32;;;;;;;;;;4998709;28;20121;-68
2023/08/27 01:46:20;;;;;;;18.10;7.70;;;;;;;;;;5000524;28;20578;-68
2023/08/27 01:48:47;;;;;;;17.40;8.35;;;;;;;;;;4999150;28;20095;-68
2023/08/27 01:51:13;;;;;;;13.15;7.70;;;;;;;;;;5030494;28;20642;-69
2023/08/27 01:53:38;;;;;;;13.18;7.65;;;;;;;;;;5032557;28;20038;-70
2023/08/27 01:56:05;;;;;;;15.18;8.52;;;;;;;;;;5000218;28;20037;-69
2023/08/27 01:58:30;;;;;;;13.90;8.50;;;;;;;;;;5004504;28;20037;-68
2023/08/27 02:00:55;;;;;;;12.32;7.85;;;;;;;;;;5003083;28;20029;-69
2023/08/27 02:03:21;;;;;;;18.25;11.30;;;;;;;;;;4998238;28;20099;-69
2023/08/27 02:05:49;;;;;;;12.68;8.38;;;;;;;;;;4998581;28;20041;-68
2023/08/27 02:08:14;;;;;;;12.32;7.05;;;;;;;;;;5001210;28;20045;-69
2023/08/27 02:10:41;;;;;;;17.70;7.38;;;;;;;;;;4998545;28;20046;-70
2023/08/27 02:13:09;;;;;;;13.45;9.10;;;;;;;;;;4999171;28;20049;-70
2023/08/27 02:15:34;;;;;;;13.18;7.35;;;;;;;;;;5000788;28;20072;-70
2023/08/27 02:17:59;;;;;;;18.63;8.32;;;;;;;;;;5001563;28;20045;-70
2023/08/27 02:20:25;;;;;;;14.07;8.90;;;;;;;;;;5017132;28;20036;-70
2023/08/27 02:22:50;;;;;;;12.68;8.07;;;;;;;;;;5000688;28;20039;-69
2023/08/27 02:25:15;;;;;;;15.40;8.73;;;;;;;;;;4996866;28;20157;-70
2023/08/27 02:27:40;;;;;;;13.95;8.60;;;;;;;;;;5003247;28;20069;-69
2023/08/27 02:30:06;;;;;;;15.35;9.18;;;;;;;;;;5008868;28;20044;-70
2023/08/27 02:32:31;;;;;;;10.20;7.30;;;;;;;;;;4999782;28;20624;-69
2023/08/27 02:34:57;;;;;;;14.93;8.45;;;;;;;;;;5004358;28;20052;-68
2023/08/27 02:37:22;;;;;;;15.80;8.23;;;;;;;;;;5020313;28;20071;-70
2023/08/27 02:39:48;;;;;;;17.88;7.82;;;;;;;;;;5017779;28;20037;-70
2023/08/27 02:42:15;;;;;;;16.35;8.90;;;;;;;;;;5022428;28;20041;-69
2023/08/27 02:44:43;;;;;;;19.35;9.35;;;;;;;;;;5048423;28;20052;-69
2023/08/27 02:47:08;;;;;;;13.70;6.53;;;;;;;;;;5019368;28;20033;-69
2023/08/27 02:49:34;;;;;;;14.50;6.93;;;;;;;;;;5017805;28;20068;-68
2023/08/27 02:52:01;;;;;;;13.43;6.70;;;;;;;;;;5033836;28;20099;-68
2023/08/27 02:54:27;;;;;;;13.35;5.20;;;;;;;;;;5018096;28;20033;-69
2023/08/27 02:56:52;;;;;;;7.95;1.75;;;;;;;;;;5048964;28;20037;-69
2023/08/27 02:59:17;;;;;;;6.75;1.67;;;;;;;;;;5018070;28;20072;-67
2023/08/27 03:01:42;;;;;;;15.35;2.10;;;;;;;;;;5023278;28;20033;-68
2023/08/27 03:04:08;;;;;;;11.93;1.92;;;;;;;;;;5022912;28;20045;-69
2023/08/27 03:06:35;;;;;;;9.38;1.38;;;;;;;;;;5049055;28;22252;-70
2023/08/27 03:09:05;;;;;;;14.00;2.03;;;;;;;;;;5050424;28;20132;-68
2023/08/27 03:11:30;;;;;;;11.02;1.40;;;;;;;;;;5021783;28;20041;-70
2023/08/27 03:13:56;;;;;;;9.95;1.50;;;;;;;;;;5019550;28;20039;-70
2023/08/27 03:16:21;;;;;;;6.38;1.65;;;;;;;;;;5017407;28;20045;-69
2023/08/27 03:18:51;;;;;;;14.82;1.80;;;;;;;;;;5019614;28;20041;-69
2023/08/27 03:21:16;;;;;;;10.07;1.83;;;;;;;;;;5020104;28;20040;-68
2023/08/27 03:23:42;;;;;;;12.82;1.77;;;;;;;;;;5019104;28;20474;-71
2023/08/27 03:26:07;;;;;;;11.25;1.67;;;;;;;;;;5021328;28;20036;-66
2023/08/27 03:28:33;;;;;;;13.70;1.90;;;;;;;;;;5022441;28;20025;-70
2023/08/27 03:31:01;;;;;;;6.82;1.40;;;;;;;;;;5022356;28;20049;-69
2023/08/27 03:33:27;;;;;;;10.63;1.85;;;;;;;;;;5022908;28;22328;-70
2023/08/27 03:35:54;;;;;;;12.25;2.45;;;;;;;;;;5053722;28;20038;-69
2023/08/27 03:38:22;;;;;;;9.73;2.20;;;;;;;;;;5022227;28;20041;-69
2023/08/27 03:40:48;;;;;;;12.15;2.28;;;;;;;;;;5021653;28;20168;-68
2023/08/27 03:43:13;;;;;;;13.38;1.85;;;;;;;;;;5054350;28;20036;-69
2023/08/27 03:45:39;;;;;;;5.70;1.40;;;;;;;;;;5053433;28;20407;-70
2023/08/27 03:48:05;;;;;;;5.80;1.80;;;;;;;;;;5024010;28;20350;-70
2023/08/27 03:50:31;;;;;;;10.57;1.40;;;;;;;;;;5022414;28;20478;-70
2023/08/27 03:52:57;;;;;;;10.32;1.75;;;;;;;;;;5036627;28;20080;-71
2023/08/27 03:55:25;;;;;;;11.95;2.03;;;;;;;;;;5009182;28;20040;-71
2023/08/27 03:57:51;;;;;;;7.63;1.52;;;;;;;;;;5020373;28;20120;-72
2023/08/27 04:00:16;;;;;;;8.77;1.30;;;;;;;;;;5022160;28;20067;-70
2023/08/27 04:02:41;;;;;;;6.45;1.60;;;;;;;;;;5028924;28;20090;-69
2023/08/27 04:05:07;;;;;;;11.50;1.75;;;;;;;;;;5036498;28;20040;-69
2023/08/27 04:07:35;;;;;;;8.07;1.40;;;;;;;;;;5020585;28;20068;-68
2023/08/27 04:10:00;;;;;;;8.23;1.63;;;;;;;;;;5025012;28;20497;-70
2023/08/27 04:12:25;;;;;;;15.52;3.33;;;;;;;;;;5021765;28;20054;-71
2023/08/27 04:14:50;;;;;;;22.80;5.10;;;;;;;;;;5021464;28;20970;-70
2023/08/27 04:17:18;;;;;;;14.80;5.25;;;;;;;;;;5020857;28;20041;-70
2023/08/27 04:19:43;;;;;;;9.63;4.25;;;;;;;;;;5049923;28;20057;-70
2023/08/27 04:22:08;;;;;;;11.98;4.13;;;;;;;;;;5022410;28;20043;-71
2023/08/27 04:24:34;;;;;;;14.88;4.20;;;;;;;;;;5019035;28;20047;-70
2023/08/27 04:26:59;;;;;;;16.67;5.75;;;;;;;;;;5022427;28;20037;-71
2023/08/27 04:29:26;;;;;;;17.17;4.43;;;;;;;;;;5019259;28;20650;-73
2023/08/27 04:31:52;;;;;;;9.88;4.45;;;;;;;;;;5021552;28;20048;-71
2023/08/27 04:34:17;;;;;;;14.07;5.05;;;;;;;;;;5052127;28;20116;-70
2023/08/27 04:36:42;;;;;;;10.55;4.20;;;;;;;;;;5019840;28;20128;-71
2023/08/27 04:39:13;;;;;;;19.55;4.60;;;;;;;;;;5020352;28;20087;-71
2023/08/27 04:41:38;;;;;;;13.38;4.45;;;;;;;;;;5018892;28;20975;-70
2023/08/27 04:44:04;;;;;;;14.40;4.65;;;;;;;;;;5025645;28;20028;-70
2023/08/27 04:46:31;;;;;;;24.20;5.88;;;;;;;;;;5021321;28;20149;-69
2023/08/27 04:48:57;;;;;;;18.23;4.72;;;;;;;;;;5020205;28;20043;-71
2023/08/27 04:51:26;;;;;;;19.10;5.20;;;;;;;;;;5020025;28;20049;-70
2023/08/27 04:53:52;;;;;;;21.27;7.82;;;;;;;;;;5020257;28;20136;-70
2023/08/27 04:56:18;;;;;;;18.25;6.07;;;;;;;;;;5018084;28;20036;-70
2023/08/27 04:58:46;;;;;;;9.52;4.80;;;;;;;;;;5019975;28;20074;-69
2023/08/27 05:01:11;;;;;;;13.43;3.40;;;;;;;;;;5019171;28;20037;-71
2023/08/27 05:03:39;;;;;;;8.57;2.45;;;;;;;;;;5023780;28;23571;-71
2023/08/27 05:06:04;;;;;;;11.10;3.70;;;;;;;;;;5023605;28;20041;-70
2023/08/27 05:08:29;;;;;;;22.85;6.95;;;;;;;;;;5024729;28;20056;-71
2023/08/27 05:10:54;;;;;;;27.50;8.60;;;;;;;;;;5037634;28;20079;-69
2023/08/27 05:13:20;;;;;;;31.55;9.82;;;;;;;;;;5020637;28;20090;-69
2023/08/27 05:15:45;;;;;;;27.55;8.57;;;;;;;;;;5020440;28;20121;-71
2023/08/27 05:18:10;;;;;;;24.10;6.93;;;;;;;;;;5023979;28;20065;-70
2023/08/27 05:20:39;;;;;;;34.22;8.60;;;;;;;;;;5017510;28;20052;-70
2023/08/27 05:23:04;;;;;;;48.60;14.15;;;;;;;;;;5050739;28;20034;-71
2023/08/27 05:25:30;;;;;;;32.63;10.23;;;;;;;;;;5049661;28;20047;-72
2023/08/27 05:27:55;;;;;;;21.13;7.47;;;;;;;;;;5021446;28;20033;-70
2023/08/27 05:30:20;;;;;;;19.88;7.95;;;;;;;;;;5018153;28;20048;-71
2023/08/27 05:32:46;;;;;;;20.73;6.75;;;;;;;;;;5020011;28;20033;-71
2023/08/27 05:35:13;;;;;;;20.08;7.80;;;;;;;;;;5017110;28;20129;-70
2023/08/27 05:37:39;;;;;;;16.63;5.85;;;;;;;;;;5018762;28;20041;-70
2023/08/27 05:40:08;;;;;;;17.50;4.82;;;;;;;;;;5017791;28;20952;-71
2023/08/27 05:42:34;;;;;;;17.52;5.68;;;;;;;;;;5018910;28;22533;-68
2023/08/27 05:44:59;;;;;;;20.35;6.40;;;;;;;;;;5023773;28;20025;-71
2023/08/27 05:47:26;;;;;;;11.50;4.00;;;;;;;;;;5020995;28;20074;-71
2023/08/27 05:49:52;;;;;;;5.07;1.92;;;;;;;;;;4998135;28;21019;-70
2023/08/27 05:52:17;;;;;;;10.27;2.40;;;;;;;;;;4998355;28;20037;-71
2023/08/27 05:54:42;;;;;;;7.88;2.60;;;;;;;;;;5019585;28;20037;-71
2023/08/27 05:57:07;;;;;;;5.75;2.40;;;;;;;;;;5017569;28;20359;-71
2023/08/27 05:59:33;;;;;;;9.65;3.40;;;;;;;;;;5016394;28;20116;-71
2023/08/27 06:01:59;;;;;;;9.27;3.15;;;;;;;;;;5017348;28;20056;-71
2023/08/27 06:04:24;;;;;;;13.75;4.72;;;;;;;;;;5021374;28;20041;-74
2023/08/27 06:06:50;;;;;;;29.80;8.45;;;;;;;;;;5008146;28;20122;-73
2023/08/27 06:09:16;;;;;;;37.30;11.02;;;;;;;;;;5018757;28;20036;-74
2023/08/27 06:11:41;;;;;;;31.27;9.95;;;;;;;;;;5021526;28;20045;-73
2023/08/27 06:14:08;;;;;;;23.42;7.68;;;;;;;;;;5018462;28;20171;-75
2023/08/27 06:16:34;;;;;;;11.73;2.70;;;;;;;;;;5019633;28;20037;-74
2023/08/27 06:18:59;;;;;;;6.72;2.20;;;;;;;;;;5048904;28;20037;-74
2023/08/27 06:21:25;;;;;;;11.70;3.17;;;;;;;;;;5017307;28;20510;-74
2023/08/27 06:23:50;;;;;;;31.63;10.60;;;;;;;;;;5004067;28;20029;-68
2023/08/27 06:26:15;;;;;;;41.80;13.60;;;;;;;;;;5015209;28;22305;-69
2023/08/27 06:28:43;;;;;;;36.97;11.02;;;;;;;;;;5043967;28;20072;-66
2023/08/27 06:31:08;;;;;;;30.80;10.02;;;;;;;;;;5014865;28;20041;-66
2023/08/27 06:33:33;;;;;;;17.08;6.68;;;;;;;;;;5014798;28;20166;-66
2023/08/27 06:35:59;;;;;;;16.17;6.00;;;;;;;;;;5012665;28;20037;-66
2023/08/27 06:38:24;;;;;;;10.77;3.90;;;;;;;;;;5016538;28;20041;-66
2023/08/27 06:40:50;;;;;;;10.77;3.22;;;;;;;;;;5016770;28;20029;-66
2023/08/27 06:43:15;;;;;;;8.45;2.90;;;;;;;;;;5016324;28;20665;-66
2023/08/27 06:45:40;;;;;;;9.45;3.50;;;;;;;;;;5013952;28;20485;-66
2023/08/27 06:48:05;;;;;;;9.77;3.30;;;;;;;;;;5013560;28;20164;-66
2023/08/27 06:50:31;;;;;;;7.32;3.30;;;;;;;;;;5018254;28;20060;-66
2023/08/27 06:52:56;;;;;;;8.55;3.20;;;;;;;;;;5019031;28;20052;-66
2023/08/27 06:55:21;;;;;;;9.75;3.00;;;;;;;;;;5015655;28;20489;-63
2023/08/27 06:57:47;;;;;;;7.72;2.10;;;;;;;;;;5015170;28;20333;-63
2023/08/27 07:00:12;;;;;;;7.50;2.28;;;;;;;;;;5017888;28;20508;-64
2023/08/27 07:02:37;;;;;;;7.32;1.92;;;;;;;;;;5021063;28;20493;-65
2023/08/27 07:05:08;;;;;;;6.53;2.00;;;;;;;;;;5051903;28;20307;-64
2023/08/27 07:07:34;;;;;;;7.40;2.35;;;;;;;;;;5020475;28;20083;-64
2023/08/27 07:09:59;;;;;;;5.65;2.20;;;;;;;;;;5019781;28;20043;-64
2023/08/27 07:12:25;;;;;;;7.25;2.53;;;;;;;;;;5036479;28;20033;-65
2023/08/27 07:14:50;;;;;;;10.05;2.63;;;;;;;;;;5023321;28;20037;-64
2023/08/27 07:17:15;;;;;;;12.52;2.90;;;;;;;;;;5022047;28;20029;-66
2023/08/27 07:19:43;;;;;;;17.08;3.50;;;;;;;;;;5025618;28;20083;-70
2023/08/27 07:22:08;;;;;;;7.63;2.33;;;;;;;;;;5022503;28;20033;-72
2023/08/27 07:24:34;;;;;;;10.32;3.42;;;;;;;;;;5021227;27;20095;-72
2023/08/27 07:26:59;;;;;;;21.90;4.70;;;;;;;;;;5009507;28;20059;-72
2023/08/27 07:29:24;;;;;;;14.85;4.90;;;;;;;;;;5050615;28;20429;-74
2023/08/27 07:31:50;;;;;;;10.75;5.07;;;;;;;;;;5025108;28;20099;-72
2023/08/27 07:34:15;;;;;;;16.38;6.38;;;;;;;;;;5025787;28;20037;-74
2023/08/27 07:36:40;;;;;;;17.95;7.85;;;;;;;;;;5055074;28;20041;-70
2023/08/27 07:39:08;;;;;;;16.92;6.35;;;;;;;;;;5023584;28;20059;-71
2023/08/27 07:41:33;;;;;;;10.63;3.72;;;;;;;;;;5037615;28;20123;-67
2023/08/27 07:44:01;;;;;;;9.07;2.97;;;;;;;;;;5020451;28;20047;-69
2023/08/27 07:46:27;;;;;;;7.90;2.85;;;;;;;;;;5019531;28;20069;-69
2023/08/27 07:48:52;;;;;;;13.35;4.20;;;;;;;;;;5019209;28;20338;-70
2023/08/27 07:51:17;;;;;;;12.15;4.28;;;;;;;;;;5018030;28;20053;-70
2023/08/27 07:53:42;;;;;;;19.38;6.60;;;;;;;;;;5052643;28;20037;-72
2023/08/27 07:56:09;;;;;;;7.97;3.03;;;;;;;;;;5021986;28;20037;-71
2023/08/27 07:58:34;;;;;;;11.82;3.15;;;;;;;;;;5025958;28;20044;-72
2023/08/27 08:01:04;;;;;;;11.93;4.07;;;;;;;;;;5018674;28;20276;-74
2023/08/27 08:03:31;;;;;;;13.77;4.88;;;;;;;;;;5020442;28;20176;-73
2023/08/27 08:05:59;;;;;;;10.40;4.13;;;;;;;;;;5020013;28;20032;-74
2023/08/27 08:08:25;;;;;;;7.90;3.50;;;;;;;;;;5005004;28;20201;-73
2023/08/27 08:10:56;;;;;;;6.82;2.92;;;;;;;;;;5002364;28;20069;-72
2023/08/27 08:13:21;;;;;;;8.13;2.60;;;;;;;;;;4988568;28;20171;-73
2023/08/27 08:15:49;;;;;;;8.40;2.15;;;;;;;;;;5000181;28;20044;-73
2023/08/27 08:18:14;;;;;;;7.75;1.90;;;;;;;;;;5000302;28;20060;-73
2023/08/27 08:20:40;;;;;;;4.97;1.25;;;;;;;;;;5002180;28;20319;-77
2023/08/27 08:23:05;;;;;;;4.45;1.00;;;;;;;;;;5002087;28;20743;-74
2023/08/27 08:25:33;;;;;;;4.15;1.10;;;;;;;;;;5001828;28;20040;-77
2023/08/27 08:27:59;;;;;;;5.70;1.00;;;;;;;;;;5000228;28;20033;-75
2023/08/27 08:30:26;;;;;;;7.53;1.10;;;;;;;;;;5005665;28;20189;-77
2023/08/27 08:32:52;;;;;;;10.73;1.48;;;;;;;;;;5000275;28;20465;-78
2023/08/27 08:35:17;;;;;;;7.05;1.77;;;;;;;;;;5002699;28;20033;-78
2023/08/27 08:37:43;;;;;;;10.25;1.55;;;;;;;;;;5006557;28;20038;-71
2023/08/27 08:40:09;;;;;;;6.65;1.35;;;;;;;;;;5021334;28;20037;-74
2023/08/27 08:42:40;;;;;;;7.60;1.30;;;;;;;;;;5034765;28;20033;-76
2023/08/27 08:45:05;;;;;;;6.85;1.20;;;;;;;;;;5020428;27;20208;-77
2023/08/27 08:47:33;;;;;;;5.15;0.95;;;;;;;;;;5022902;28;20033;-75
2023/08/27 08:49:59;;;;;;;7.60;1.10;;;;;;;;;;5022805;28;20444;-75
2023/08/27 08:52:26;;;;;;;7.70;0.98;;;;;;;;;;5051117;28;20044;-74
2023/08/27 08:54:53;;;;;;;8.20;1.20;;;;;;;;;;5021660;28;20063;-77
2023/08/27 08:57:23;;;;;;;6.75;0.90;;;;;;;;;;5018576;28;20040;-75
2023/08/27 08:59:52;;;;;;;4.47;0.93;;;;;;;;;;5019822;28;20269;-76
2023/08/27 09:02:18;;;;;;;4.75;1.00;;;;;;;;;;5019971;28;20083;-72
2023/08/27 09:04:43;;;;;;;7.05;0.90;;;;;;;;;;5017214;28;20486;-74
2023/08/27 09:07:09;;;;;;;4.03;0.90;;;;;;;;;;5020037;28;20198;-73
2023/08/27 09:09:36;;;;;;;6.60;0.80;;;;;;;;;;5020009;28;20044;-74
2023/08/27 09:12:02;;;;;;;4.18;1.00;;;;;;;;;;5018306;28;20032;-75
2023/08/27 09:14:31;;;;;;;3.08;0.90;;;;;;;;;;5018183;28;20025;-73
2023/08/27 09:16:58;;;;;;;6.07;0.63;;;;;;;;;;5049896;28;20104;-75
2023/08/27 09:19:23;;;;;;;4.82;0.70;;;;;;;;;;5020766;28;20749;-74
2023/08/27 09:21:49;;;;;;;2.35;0.70;;;;;;;;;;5018409;28;20041;-71
2023/08/27 09:24:17;;;;;;;2.55;0.82;;;;;;;;;;5016013;28;20098;-69
2023/08/27 09:26:42;;;;;;;2.83;0.70;;;;;;;;;;5018585;28;20280;-78
2023/08/27 09:29:07;;;;;;;4.78;0.80;;;;;;;;;;5023003;28;20037;-74
2023/08/27 09:31:36;;;;;;;3.30;0.60;;;;;;;;;;5021246;28;20050;-77
2023/08/27 09:34:02;;;;;;;3.60;0.70;;;;;;;;;;5022953;28;20036;-75
2023/08/27 09:36:27;;;;;;;1.80;0.70;;;;;;;;;;5017530;28;20055;-75
2023/08/27 09:38:53;;;;;;;3.33;0.70;;;;;;;;;;5021733;28;20038;-74
2023/08/27 09:41:18;;;;;;;6.57;1.20;;;;;;;;;;5018592;28;20123;-75
2023/08/27 09:43:50;;;;;;;4.18;0.93;;;;;;;;;;5022302;28;20510;-74
2023/08/27 09:46:18;;;;;;;4.47;1.00;;;;;;;;;;5048134;28;20040;-75
2023/08/27 09:48:43;;;;;;;4.28;1.10;;;;;;;;;;5018981;28;20050;-71
2023/08/27 09:51:09;;;;;;;4.57;0.98;;;;;;;;;;5017457;28;20400;-73
2023/08/27 09:53:35;;;;;;;6.78;1.27;;;;;;;;;;5005962;28;20166;-76
2023/08/27 09:56:02;;;;;;;12.40;2.05;;;;;;;;;;5016817;28;20497;-75
2023/08/27 09:58:28;;;;;;;13.82;1.85;;;;;;;;;;5018330;28;20059;-76
2023/08/27 10:00:59;;;;;;;15.13;2.15;;;;;;;;;;5018708;28;20041;-71
2023/08/27 10:03:25;;;;;;;;;;;;;;;;;;5022555;28;20033;-72
2023/08/27 10:05:50;;;;;;;23.85;2.85;;;;;;;;;;5000133;28;19927;-71
2023/08/27 10:08:16;;;;;;;31.23;3.17;;;;;;;;;;5015228;28;20044;-71
2023/08/27 10:10:41;;;;;;;21.08;2.92;;;;;;;;;;5016873;28;21956;-73
2023/08/27 10:13:06;;;;;;;7.35;1.15;;;;;;;;;;5022239;28;20123;-76
2023/08/27 10:15:35;;;;;;;17.27;1.77;;;;;;;;;;5020716;28;20120;-76
2023/08/27 10:18:02;;;;;;;14.80;2.15;;;;;;;;;;5018415;28;20044;-75
2023/08/27 10:20:28;;;;;;;12.23;2.17;;;;;;;;;;5015946;28;20043;-72
2023/08/27 10:22:55;;;;;;;17.45;1.98;;;;;;;;;;5013884;28;20034;-73
2023/08/27 10:25:21;;;;;;;24.38;2.88;;;;;;;;;;5046005;28;20282;-70
2023/08/27 10:27:48;;;;;;;14.18;2.03;;;;;;;;;;5012910;28;20075;-73
2023/08/27 10:30:14;;;;;;;10.23;2.00;;;;;;;;;;5010794;28;20480;-73
2023/08/27 10:32:42;;;;;;;14.52;2.80;;;;;;;;;;5014192;28;20454;-73
2023/08/27 10:35:09;;;;;;;21.20;2.90;;;;;;;;;;5015321;28;20400;-71
2023/08/27 10:37:35;;;;;;;15.90;2.83;;;;;;;;;;5017636;28;20316;-72
2023/08/27 10:40:01;;;;;;;15.13;2.47;;;;;;;;;;5015902;28;20025;-74
2023/08/27 10:42:33;;;;;;;14.70;2.38;;;;;;;;;;5014913;28;20222;-75
2023/08/27 10:45:18;;;;;;;10.60;1.42;;;;;;;;;;5013036;28;20049;-73
2023/08/27 10:48:10;;;;;;;9.98;1.30;;;;;;;;;;5012442;28;20029;-75
2023/08/27 10:50:36;;;;;;;;;;;;;;;;;;5013772;28;20527;-71
2023/08/27 10:53:03;;;;;;;9.18;1.17;;;;;;;;;;5013359;28;19921;-67
2023/08/27 10:55:36;;;;;;;10.82;1.10;;;;;;;;;;5014324;28;20039;-74
2023/08/27 10:58:17;;;;;;;10.15;1.52;;;;;;;;;;5013461;28;20424;-72
2023/08/27 11:01:02;;;;;;;9.02;1.63;;;;;;;;;;5012759;28;20037;-74
2023/08/27 11:03:28;;;;;;;6.20;1.00;;;;;;;;;;4992679;28;20576;-75
2023/08/27 11:06:21;;;;;;;10.80;1.38;;;;;;;;;;4993129;28;20041;-75
2023/08/27 11:08:52;;;;;;;8.98;1.33;;;;;;;;;;4994746;28;20041;-74
2023/08/27 11:11:22;;;;;;;10.27;1.52;;;;;;;;;;4992666;28;20600;-75
2023/08/27 11:13:47;;;;;;;8.32;1.58;;;;;;;;;;5009541;28;20033;-75
2023/08/27 11:16:13;;;;;;;12.10;1.77;;;;;;;;;;4995358;28;20057;-76
2023/08/27 11:18:48;;;;;;;13.82;2.50;;;;;;;;;;4993929;28;20629;-75
2023/08/27 11:21:20;;;;;;;8.05;1.88;;;;;;;;;;5015108;28;20557;-75
2023/08/27 11:24:06;;;;;;;13.43;2.03;;;;;;;;;;5016636;28;20037;-72
2023/08/27 11:26:34;;;;;;;14.98;2.13;;;;;;;;;;5014062;28;20048;-77
2023/08/27 11:28:59;;;;;;;10.15;1.63;;;;;;;;;;5013578;28;20030;-77
2023/08/27 11:31:25;;;;;;;8.18;1.33;;;;;;;;;;5009321;28;20421;-75
2023/08/27 11:33:53;;;;;;;6.50;1.30;;;;;;;;;;4995421;28;20038;-75
2023/08/27 11:36:18;;;;;;;6.32;1.08;;;;;;;;;;4996758;28;20044;-77
2023/08/27 11:38:44;;;;;;;4.07;1.00;;;;;;;;;;4993919;28;20900;-81
2023/08/27 11:41:09;;;;;;;4.20;0.80;;;;;;;;;;4997234;28;20183;-79
2023/08/27 11:43:34;;;;;;;3.05;0.80;;;;;;;;;;4992677;28;20120;-79
2023/08/27 11:45:59;;;;;;;6.10;0.98;;;;;;;;;;4998282;28;20425;-78
2023/08/27 11:48:27;;;;;;;3.78;1.00;;;;;;;;;;4998949;28;20044;-76
2023/08/27 11:50:52;;;;;;;4.07;1.20;;;;;;;;;;4997745;28;20073;-76
2023/08/27 11:53:18;;;;;;;4.15;1.52;;;;;;;;;;4994792;28;20431;-77
2023/08/27 11:55:43;;;;;;;4.32;1.50;;;;;;;;;;5001227;28;20033;-77
2023/08/27 11:58:09;;;;;;;7.25;1.73;;;;;;;;;;5001297;28;20060;-78
2023/08/27 12:00:41;;;;;;;5.13;1.70;;;;;;;;;;5029275;28;20048;-75
2023/08/27 12:03:06;;;;;;;7.03;1.48;;;;;;;;;;5011069;28;20059;-77
2023/08/27 12:05:33;;;;;;;6.13;1.90;;;;;;;;;;5014542;28;20372;-79
2023/08/27 12:08:04;;;;;;;6.05;1.90;;;;;;;;;;5016865;28;20504;-76
2023/08/27 12:10:32;;;;;;;4.78;1.77;;;;;;;;;;5049153;28;20755;-80
2023/08/27 12:13:00;;;;;;;7.20;2.00;;;;;;;;;;5018848;28;20037;-76
2023/08/27 12:15:32;;;;;;;5.82;2.28;;;;;;;;;;5006131;28;20037;-77
2023/08/27 12:17:58;;;;;;;5.45;2.50;;;;;;;;;;5018630;28;20037;-78
2023/08/27 12:20:32;;;;;;;9.93;3.80;;;;;;;;;;5014743;28;20509;-72
2023/08/27 12:23:08;;;;;;;6.95;4.18;;;;;;;;;;5017907;28;20039;-80
2023/08/27 12:25:49;;;;;;;8.07;4.70;;;;;;;;;;5016226;28;20037;-74
2023/08/27 12:28:16;;;;;;;9.38;4.97;;;;;;;;;;5016332;28;20037;-73
2023/08/27 12:30:52;;;;;;;7.57;4.85;;;;;;;;;;5020887;28;20049;-73
2023/08/27 12:33:19;;;;;;;7.47;4.93;;;;;;;;;;5015375;28;20048;-75
2023/08/27 12:35:45;;;;;;;7.53;4.90;;;;;;;;;;5019430;28;20036;-79
2023/08/27 12:38:10;;;;;;;8.80;5.60;;;;;;;;;;5016994;28;20034;-77
2023/08/27 12:40:36;;;;;;;8.23;4.15;;;;;;;;;;5011936;28;20124;-72
2023/08/27 12:43:01;;;;;;;5.45;1.90;;;;;;;;;;5015682;28;20029;-75
2023/08/27 12:45:27;;;;;;;5.45;2.10;;;;;;;;;;5017382;28;20041;-73
2023/08/27 12:47:52;;;;;;;8.75;2.00;;;;;;;;;;5017356;28;20107;-78
2023/08/27 12:50:17;;;;;;;16.17;2.90;;;;;;;;;;5014889;28;22207;-77
2023/08/27 12:52:42;;;;;;;13.98;2.83;;;;;;;;;;4989938;28;20053;-76
2023/08/27 12:55:08;;;;;;;21.65;3.38;;;;;;;;;;4997370;28;20101;-79
2023/08/27 12:57:39;;;;;;;24.15;3.65;;;;;;;;;;4996802;28;20033;-77
2023/08/27 13:00:05;;;;;;;24.52;3.17;;;;;;;;;;4995573;28;20046;-76
2023/08/27 13:02:30;;;;;;;10.88;1.90;;;;;;;;;;4983968;28;20549;-75
2023/08/27 13:04:55;;;;;;;7.97;1.63;;;;;;;;;;4999191;28;20044;-74
2023/08/27 13:07:23;;;;;;;5.15;1.75;;;;;;;;;;5011851;28;20477;-77
2023/08/27 13:09:49;;;;;;;3.13;0.90;;;;;;;;;;4995625;28;20029;-75
2023/08/27 13:12:14;;;;;;;4.32;0.90;;;;;;;;;;4994873;28;20810;-78
2023/08/27 13:14:39;;;;;;;5.13;1.05;;;;;;;;;;4986691;28;20029;-78
2023/08/27 13:17:05;;;;;;;5.88;1.30;;;;;;;;;;4996986;28;20348;-78
2023/08/27 13:19:30;;;;;;;8.85;0.90;;;;;;;;;;5028094;28;20498;-76
2023/08/27 13:21:58;;;;;;;8.70;1.80;;;;;;;;;;4986707;28;20034;-72
2023/08/27 13:24:23;;;;;;;8.43;1.65;;;;;;;;;;5002270;28;20108;-75
2023/08/27 13:26:48;;;;;;;9.18;1.50;;;;;;;;;;4994889;28;20030;-79
2023/08/27 13:29:14;;;;;;;6.28;1.27;;;;;;;;;;4997708;28;20094;-79
2023/08/27 13:31:39;;;;;;;7.03;1.20;;;;;;;;;;4997293;28;20534;-79
2023/08/27 13:34:08;;;;;;;10.88;1.65;;;;;;;;;;4995526;28;20514;-75
2023/08/27 13:36:33;;;;;;;5.18;1.13;;;;;;;;;;5001345;28;20048;-77
2023/08/27 13:38:58;;;;;;;6.95;1.67;;;;;;;;;;4997976;28;20041;-79
2023/08/27 13:41:24;;;;;;;12.30;1.75;;;;;;;;;;5002078;28;20071;-76
2023/08/27 13:43:49;;;;;;;3.92;1.15;;;;;;;;;;4996569;28;20041;-75
2023/08/27 13:46:14;;;;;;;4.00;1.30;;;;;;;;;;4998585;28;20044;-77
2023/08/27 13:48:40;;;;;;;6.10;1.58;;;;;;;;;;4985923;28;20038;-75
2023/08/27 13:51:05;;;;;;;2.60;1.00;;;;;;;;;;5018344;28;20577;-76
2023/08/27 13:53:31;;;;;;;5.00;1.13;;;;;;;;;;5013110;28;20037;-78
2023/08/27 13:55:56;;;;;;;5.15;1.10;;;;;;;;;;5013768;28;20044;-77
2023/08/27 13:58:22;;;;;;;6.80;1.00;;;;;;;;;;5014665;28;20122;-77
2023/08/27 14:00:47;;;;;;;4.72;1.00;;;;;;;;;;5012165;28;21027;-76
2023/08/27 14:03:13;;;;;;;5.38;1.00;;;;;;;;;;5044064;28;20276;-77
2023/08/27 14:05:39;;;;;;;8.02;1.30;;;;;;;;;;5045347;28;20900;-74
2023/08/27 14:08:05;;;;;;;4.70;1.10;;;;;;;;;;5012799;28;20033;-79
2023/08/27 14:10:30;;;;;;;4.50;1.05;;;;;;;;;;5013326;28;20422;-70
2023/08/27 14:12:55;;;;;;;6.95;1.30;;;;;;;;;;5014889;28;20041;-71
2023/08/27 14:15:21;;;;;;;4.45;1.40;;;;;;;;;;5014866;28;20033;-69
2023/08/27 14:17:46;;;;;;;5.55;1.40;;;;;;;;;;5012772;28;20033;-69
2023/08/27 14:20:11;;;;;;;4.20;1.17;;;;;;;;;;5012309;28;20037;-73
2023/08/27 14:22:36;;;;;;;14.18;1.80;;;;;;;;;;5013989;28;20040;-70
2023/08/27 14:25:03;;;;;;;11.68;2.08;;;;;;;;;;5013153;28;20303;-73
2023/08/27 14:27:29;;;;;;;22.45;3.58;;;;;;;;;;5012461;28;20060;-72
2023/08/27 14:29:54;;;;;;;17.88;3.10;;;;;;;;;;5012687;28;20649;-72
2023/08/27 14:32:19;;;;;;;12.80;2.13;;;;;;;;;;5012950;28;20544;-75